Time;durP1;ratioP1;P1;durP2;ratioP2;P2;SDS_P1;SDS_P2;PMS_P1;PMS_P2;Temp;Humidity;BMP_temperature;BMP_pressure;BME280_temperature;BME280_humidity;BME280_pressure;Samples;Min_cycle;Max_cycle;Signal;HPM_P1;HPM_P2
2022/01/23 00:00:35;;;;;;;5.90;4.18;;;1.30;99.90;;;;;;4978154;28;20227;-69
2022/01/23 00:03:07;;;;;;;6.32;5.53;;;1.40;99.90;;;;;;4978129;28;20235;-69
2022/01/23 00:05:37;;;;;;;5.03;4.63;;;1.20;99.90;;;;;;4977803;28;20207;-69
2022/01/23 00:08:05;;;;;;;5.10;4.60;;;1.20;99.90;;;;;;4978242;28;20213;-70
2022/01/23 00:10:32;;;;;;;4.38;3.97;;;1.30;99.90;;;;;;4977518;28;20227;-70
2022/01/23 00:13:08;;;;;;;4.55;4.13;;;1.30;99.90;;;;;;4977950;28;20231;-70
2022/01/23 00:18:22;;;;;;;4.28;3.92;;;1.30;99.90;;;;;;4977826;28;20198;-69
2022/01/23 00:20:50;;;;;;;4.35;3.95;;;1.30;99.90;;;;;;4977532;28;20314;-70
2022/01/23 00:23:29;;;;;;;4.40;3.78;;;1.30;99.90;;;;;;4977758;28;20261;-69
2022/01/23 00:31:27;;;;;;;5.45;4.65;;;1.20;99.90;;;;;;4977563;28;20274;-71
2022/01/23 00:33:54;;;;;;;5.68;4.97;;;1.20;99.90;;;;;;4977256;28;20659;-70
2022/01/23 00:36:22;;;;;;;5.75;4.60;;;1.10;99.90;;;;;;4977561;28;20266;-69
2022/01/23 00:38:49;;;;;;;4.70;4.30;;;1.10;99.90;;;;;;4977181;28;20542;-69
2022/01/23 00:41:16;;;;;;;4.90;4.35;;;1.10;99.90;;;;;;4977051;28;20258;-71
2022/01/23 00:43:44;;;;;;;5.80;4.78;;;1.10;99.90;;;;;;4977319;28;20239;-71
2022/01/23 00:46:22;;;;;;;4.93;4.53;;;1.10;99.90;;;;;;4977220;28;20219;-70
2022/01/23 00:49:24;;;;;;;7.05;5.53;;;1.10;99.90;;;;;;4977352;28;20191;-70
2022/01/23 00:51:50;;;;;;;6.38;4.97;;;1.10;99.90;;;;;;4976719;28;20226;-71
2022/01/23 00:54:17;;;;;;;5.38;4.70;;;1.10;99.90;;;;;;4976881;28;20208;-70
2022/01/23 00:56:44;;;;;;;5.25;4.75;;;1.10;99.90;;;;;;4977627;28;20231;-70
2022/01/23 00:59:11;;;;;;;5.18;4.47;;;1.10;99.90;;;;;;4977018;28;20266;-70
2022/01/23 01:01:38;;;;;;;5.65;4.65;;;1.10;99.90;;;;;;4976928;28;20234;-70
2022/01/23 01:04:07;;;;;;;4.93;4.25;;;1.10;99.90;;;;;;5000115;23;20223;-69
2022/01/23 01:06:33;;;;;;;5.28;4.78;;;1.00;99.90;;;;;;4976780;28;20259;-69
2022/01/23 01:09:04;;;;;;;6.28;4.93;;;1.00;99.90;;;;;;4977211;28;20235;-69
2022/01/23 01:11:55;;;;;;;7.57;5.50;;;1.00;99.90;;;;;;4976836;28;20187;-69
2022/01/23 01:14:32;;;;;;;7.45;5.10;;;1.00;99.90;;;;;;4977058;28;20223;-69
2022/01/23 01:17:07;;;;;;;6.68;5.18;;;1.00;99.90;;;;;;4976751;28;20552;-69
2022/01/23 01:30:38;;;;;;;7.07;4.75;;;1.00;99.90;;;;;;4976530;28;20231;-69
2022/01/23 01:33:17;;;;;;;5.32;4.43;;;1.00;99.90;;;;;;4976656;28;20255;-68
2022/01/23 01:35:51;;;;;;;6.93;4.80;;;1.00;99.90;;;;;;4976278;28;20203;-68
2022/01/23 01:38:19;;;;;;;6.80;5.00;;;1.00;99.90;;;;;;4976752;28;20187;-68
2022/01/23 01:40:46;;;;;;;5.20;4.32;;;1.00;99.90;;;;;;4976757;28;20208;-68
2022/01/23 01:43:13;;;;;;;6.47;4.95;;;1.00;99.90;;;;;;4976502;28;20223;-69
2022/01/23 06:42:11;;;;;;;1.40;1.40;;;1.50;99.90;;;;;;5987403;23;20529;-67
2022/01/23 06:44:40;;;;;;;1.50;1.50;;;1.50;99.90;;;;;;4977030;28;20298;-68
2022/01/23 06:47:07;;;;;;;1.95;1.88;;;1.50;99.90;;;;;;4978923;28;20229;-69
2022/01/23 06:49:34;;;;;;;1.80;1.70;;;1.50;99.90;;;;;;4978416;28;20286;-68
2022/01/23 06:52:01;;;;;;;1.65;1.58;;;1.60;99.90;;;;;;4977693;28;20251;-68
2022/01/23 06:54:29;;;;;;;2.00;1.90;;;1.60;99.90;;;;;;4999512;23;20314;-70
2022/01/23 06:56:56;;;;;;;1.70;1.70;;;1.60;99.90;;;;;;4974874;28;20199;-71
2022/01/23 06:59:24;;;;;;;1.70;1.70;;;1.60;99.90;;;;;;4975029;28;20219;-72
2022/01/23 07:01:51;;;;;;;1.50;1.50;;;1.60;99.90;;;;;;4975064;28;20226;-72
2022/01/23 07:04:17;;;;;;;1.50;1.50;;;1.60;99.90;;;;;;4974658;28;20211;-70
2022/01/23 07:06:44;;;;;;;1.60;1.58;;;1.60;99.90;;;;;;4974652;28;20258;-70
2022/01/23 07:09:11;;;;;;;1.70;1.60;;;1.60;99.90;;;;;;4974937;28;20199;-70
2022/01/23 07:11:38;;;;;;;1.48;1.48;;;1.60;99.90;;;;;;4974693;28;20242;-71
2022/01/23 07:14:05;;;;;;;1.35;1.35;;;1.60;99.90;;;;;;4974744;28;20203;-71
2022/01/23 07:16:33;;;;;;;1.35;1.35;;;1.60;99.90;;;;;;4974815;28;20199;-73
2022/01/23 07:19:00;;;;;;;1.58;1.58;;;1.60;99.90;;;;;;4974522;28;20210;-72
2022/01/23 07:21:27;;;;;;;1.80;1.75;;;1.60;99.90;;;;;;4974769;28;20235;-72
2022/01/23 07:23:54;;;;;;;1.25;1.25;;;1.60;99.90;;;;;;4974268;28;20290;-72
2022/01/23 07:26:24;;;;;;;1.40;1.40;;;1.70;99.90;;;;;;4973873;28;20219;-72
2022/01/23 07:28:53;;;;;;;1.30;1.30;;;1.70;99.90;;;;;;4974250;28;20678;-72
2022/01/23 07:31:42;;;;;;;1.80;1.75;;;1.70;99.90;;;;;;4974567;28;20250;-72
2022/01/23 07:34:10;;;;;;;1.63;1.52;;;1.70;99.90;;;;;;4974040;28;20277;-72
2022/01/23 07:36:38;;;;;;;1.30;1.30;;;1.70;99.90;;;;;;4975325;28;20286;-72
2022/01/23 07:39:06;;;;;;;1.20;1.20;;;1.70;99.90;;;;;;4974559;28;20205;-72
2022/01/23 07:41:33;;;;;;;1.42;1.40;;;1.70;99.90;;;;;;4974575;28;20229;-72
2022/01/23 07:44:00;;;;;;;1.80;1.70;;;1.70;99.90;;;;;;4974036;28;20666;-71
2022/01/23 07:46:27;;;;;;;1.50;1.50;;;1.80;99.90;;;;;;4974444;28;20650;-72
2022/01/23 07:48:54;;;;;;;2.00;1.90;;;1.80;99.90;;;;;;4976969;28;20294;-68
2022/01/23 07:51:22;;;;;;;1.50;1.50;;;1.80;99.90;;;;;;4978309;28;20213;-69
2022/01/23 07:53:49;;;;;;;1.83;1.75;;;1.80;99.90;;;;;;4978271;28;20203;-70
2022/01/23 07:56:16;;;;;;;2.90;2.70;;;1.80;99.90;;;;;;4977699;28;20238;-69
2022/01/23 07:58:44;;;;;;;2.33;2.22;;;1.80;99.90;;;;;;4978179;28;20289;-70
2022/01/23 08:01:11;;;;;;;2.70;2.50;;;1.80;99.90;;;;;;4978172;28;20259;-70
2022/01/23 08:03:38;;;;;;;2.17;2.08;;;1.80;99.90;;;;;;4978567;28;20282;-70
2022/01/23 08:06:05;;;;;;;2.25;2.15;;;1.90;99.90;;;;;;4978121;28;20322;-70
2022/01/23 08:08:33;;;;;;;2.30;2.20;;;1.90;99.90;;;;;;4978443;28;20206;-70
2022/01/23 08:11:00;;;;;;;2.33;2.22;;;2.00;99.90;;;;;;4978322;28;20693;-71
2022/01/23 08:13:27;;;;;;;2.20;2.10;;;2.10;99.90;;;;;;4977805;28;20275;-71
2022/01/23 08:15:54;;;;;;;2.67;2.47;;;2.10;99.90;;;;;;4977727;28;20219;-71
2022/01/23 08:18:21;;;;;;;2.03;1.92;;;2.20;99.90;;;;;;4977854;28;20289;-71
2022/01/23 08:20:48;;;;;;;2.03;1.92;;;2.20;99.90;;;;;;4977856;28;20213;-71
2022/01/23 08:23:15;;;;;;;1.70;1.70;;;2.30;99.90;;;;;;4977532;28;20766;-71
2022/01/23 08:25:43;;;;;;;1.92;1.83;;;2.30;99.90;;;;;;4977415;28;20223;-71
2022/01/23 08:28:10;;;;;;;2.10;2.00;;;2.30;99.90;;;;;;4977480;28;20647;-71
2022/01/23 08:30:37;;;;;;;1.65;1.65;;;2.30;99.90;;;;;;4977619;28;20211;-71
2022/01/23 08:33:04;;;;;;;1.70;1.70;;;2.40;99.90;;;;;;4977297;28;20299;-71
2022/01/23 08:35:31;;;;;;;1.90;1.88;;;2.40;99.90;;;;;;4977576;28;20255;-71
2022/01/23 08:37:59;;;;;;;1.95;1.88;;;2.50;99.90;;;;;;4977170;28;20685;-71
2022/01/23 08:40:46;;;;;;;2.53;2.42;;;2.50;99.90;;;;;;4977415;28;20221;-71
2022/01/23 08:43:16;;;;;;;2.38;2.28;;;2.60;99.90;;;;;;4977305;28;20282;-71
2022/01/23 08:45:44;;;;;;;2.75;2.60;;;2.70;99.90;;;;;;4976492;28;20315;-71
2022/01/23 08:48:11;;;;;;;3.38;3.10;;;2.70;99.90;;;;;;4976312;28;20203;-70
2022/01/23 08:50:39;;;;;;;3.40;3.20;;;2.70;99.90;;;;;;4976868;28;20210;-69
2022/01/23 08:53:06;;;;;;;2.92;2.70;;;2.70;99.90;;;;;;4976738;28;20298;-69
2022/01/23 08:55:33;;;;;;;2.95;2.75;;;2.80;99.90;;;;;;4976428;28;20231;-70
2022/01/23 08:58:00;;;;;;;3.90;3.50;;;2.80;99.90;;;;;;4976814;28;20307;-70
2022/01/23 09:00:28;;;;;;;3.97;3.67;;;2.90;99.90;;;;;;4975488;28;20231;-70
2022/01/23 09:02:56;;;;;;;4.00;3.70;;;2.80;99.90;;;;;;4976884;28;20199;-70
2022/01/23 09:05:23;;;;;;;3.42;3.17;;;2.80;99.90;;;;;;4976838;28;20231;-70
2022/01/23 09:07:50;;;;;;;3.20;3.00;;;2.90;99.90;;;;;;4976573;28;20269;-70
2022/01/23 09:10:24;;;;;;;3.90;3.55;;;2.90;99.90;;;;;;4976809;28;20207;-70
2022/01/23 09:13:05;;;;;;;3.10;2.90;;;3.00;99.90;;;;;;4976761;28;20197;-70
2022/01/23 09:15:33;;;;;;;3.83;3.50;;;3.10;99.90;;;;;;4977702;28;20225;-70
2022/01/23 09:18:00;;;;;;;3.85;3.20;;;3.20;99.90;;;;;;4976853;28;20634;-71
2022/01/23 09:20:27;;;;;;;4.60;3.63;;;3.20;99.90;;;;;;4976908;28;20612;-71
2022/01/23 09:22:54;;;;;;;3.42;3.15;;;3.20;99.90;;;;;;4977107;28;20207;-71
2022/01/23 09:25:21;;;;;;;3.22;3.03;;;3.30;99.90;;;;;;4976867;28;20233;-71
2022/01/23 09:27:49;;;;;;;2.83;2.63;;;3.40;99.90;;;;;;4976620;28;20311;-72
2022/01/23 09:30:20;;;;;;;3.55;3.25;;;3.40;99.90;;;;;;4976668;28;20286;-71
2022/01/23 09:32:49;;;;;;;3.55;3.25;;;3.50;99.90;;;;;;4977010;28;20198;-71
2022/01/23 09:35:18;;;;;;;3.67;3.38;;;3.60;99.90;;;;;;4976473;28;20223;-72
2022/01/23 09:37:45;;;;;;;3.17;2.97;;;3.60;99.90;;;;;;4976463;28;20206;-72
2022/01/23 09:40:13;;;;;;;3.40;3.10;;;3.70;99.90;;;;;;4976328;28;20231;-72
2022/01/23 09:42:46;;;;;;;3.35;3.10;;;3.70;99.90;;;;;;4976978;28;20622;-72
2022/01/23 09:45:14;;;;;;;3.33;3.03;;;3.70;99.90;;;;;;4976636;28;20721;-72
2022/01/23 09:47:42;;;;;;;3.25;3.03;;;3.80;99.90;;;;;;4976195;28;20318;-71
2022/01/23 09:50:12;;;;;;;2.95;2.75;;;3.90;99.90;;;;;;4975994;28;20256;-71
2022/01/23 09:52:40;;;;;;;2.90;2.70;;;3.90;99.90;;;;;;4975952;28;20227;-71
2022/01/23 09:55:11;;;;;;;3.00;2.83;;;4.00;99.90;;;;;;4975822;28;20714;-71
2022/01/23 09:57:40;;;;;;;3.20;3.00;;;4.00;99.90;;;;;;4976055;28;20188;-71
2022/01/23 10:00:09;;;;;;;3.42;3.10;;;4.00;99.90;;;;;;4976525;28;20309;-71
2022/01/23 10:02:37;;;;;;;3.67;3.25;;;4.00;99.90;;;;;;4976179;28;20290;-71
2022/01/23 10:05:10;;;;;;;2.92;2.72;;;4.00;99.90;;;;;;4976029;28;20228;-72
2022/01/23 10:07:38;;;;;;;3.45;3.15;;;4.10;99.90;;;;;;4976096;28;20215;-72
2022/01/23 10:10:13;;;;;;;3.22;3.03;;;4.10;99.90;;;;;;4975964;28;20211;-73
2022/01/23 10:12:41;;;;;;;3.08;2.88;;;4.10;99.90;;;;;;4976289;28;20267;-73
2022/01/23 10:15:09;;;;;;;3.22;2.92;;;4.20;99.90;;;;;;4976113;28;20230;-72
2022/01/23 10:17:36;;;;;;;3.03;2.83;;;4.20;99.90;;;;;;4976134;28;20231;-71
2022/01/23 10:20:05;;;;;;;2.70;2.60;;;4.10;99.90;;;;;;4976191;28;20207;-72
2022/01/23 10:22:35;;;;;;;3.10;2.90;;;4.10;99.90;;;;;;4976198;28;20207;-71
2022/01/23 10:25:07;;;;;;;3.08;2.88;;;4.10;99.90;;;;;;4975869;28;20226;-72
2022/01/23 10:28:06;;;;;;;1.80;1.70;;;4.00;99.90;;;;;;4976051;28;20331;-71
2022/01/23 10:30:37;;;;;;;1.83;1.70;;;3.90;99.90;;;;;;4975784;28;20242;-71
2022/01/23 10:33:10;;;;;;;2.22;1.80;;;3.90;99.90;;;;;;4976203;28;20196;-71
2022/01/23 10:35:57;;;;;;;2.10;2.00;;;3.90;99.90;;;;;;4976233;28;20630;-72
2022/01/23 10:38:30;;;;;;;2.22;1.98;;;3.80;99.90;;;;;;4975732;28;20325;-71
2022/01/23 10:41:07;;;;;;;1.50;1.50;;;3.80;99.90;;;;;;4976035;28;20210;-72
2022/01/23 10:46:57;;;;;;;1.42;1.42;;;3.80;99.90;;;;;;4920734;28;20222;-71
2022/01/23 10:49:44;;;;;;;1.40;1.40;;;3.80;99.90;;;;;;4975032;28;20190;-71
2022/01/23 10:52:25;;;;;;;1.50;1.50;;;3.90;99.90;;;;;;4975460;28;20246;-71
2022/01/23 10:54:54;;;;;;;1.40;1.40;;;3.90;99.90;;;;;;4975131;28;20322;-71
2022/01/23 10:57:21;;;;;;;1.45;1.45;;;3.90;99.90;;;;;;4975074;28;20199;-71
2022/01/23 10:59:52;;;;;;;2.70;1.70;;;3.80;99.90;;;;;;4975267;28;20207;-71
2022/01/23 11:02:22;;;;;;;1.25;1.25;;;3.70;99.90;;;;;;4975551;28;20286;-70
2022/01/23 11:04:56;;;;;;;1.50;1.33;;;3.70;99.90;;;;;;4974681;28;20230;-70
2022/01/23 11:07:24;;;;;;;2.15;1.30;;;3.80;99.90;;;;;;4974994;28;20238;-70
2022/01/23 11:10:03;;;;;;;1.52;1.52;;;3.80;99.90;;;;;;4974527;28;20670;-71
2022/01/23 11:12:46;;;;;;;1.38;1.13;;;3.70;99.90;;;;;;4975164;28;20187;-71
2022/01/23 11:18:00;;;;;;;1.25;1.15;;;3.70;99.90;;;;;;4945352;28;20552;-71
2022/01/23 11:20:33;;;;;;;1.90;1.48;;;3.70;99.90;;;;;;4975039;28;20294;-71
2022/01/23 11:23:14;;;;;;;1.48;1.48;;;3.70;99.90;;;;;;4974346;28;20203;-70
2022/01/23 11:25:45;;;;;;;1.30;1.30;;;3.60;99.90;;;;;;4974577;28;20714;-71
2022/01/23 11:28:14;;;;;;;1.30;1.30;;;3.60;99.90;;;;;;4975017;28;20207;-70
2022/01/23 11:30:47;;;;;;;1.50;1.40;;;3.70;99.90;;;;;;4974686;28;20647;-72
2022/01/23 11:33:17;;;;;;;1.40;1.40;;;3.80;99.90;;;;;;4977058;28;20275;-72
2022/01/23 11:35:48;;;;;;;1.60;1.50;;;3.80;99.90;;;;;;4977507;28;20683;-70
2022/01/23 11:38:19;;;;;;;1.55;1.55;;;3.80;99.90;;;;;;4978709;28;20262;-70
2022/01/23 11:55:01;;;;;;;1.45;1.45;;;4.00;99.90;;;;;;4978004;28;20230;-71
2022/01/23 11:57:44;;;;;;;1.50;1.50;;;4.10;99.90;;;;;;4978154;28;20678;-72
2022/01/23 12:00:18;;;;;;;1.67;1.60;;;4.10;99.90;;;;;;4978042;28;20639;-71
2022/01/23 12:03:05;;;;;;;1.55;1.55;;;4.10;99.90;;;;;;4974691;28;20312;-71
2022/01/23 12:05:34;;;;;;;1.90;1.80;;;4.10;99.90;;;;;;4974228;28;20778;-71
2022/01/23 12:08:37;;;;;;;2.25;1.95;;;4.10;99.90;;;;;;4974482;28;20219;-72
2022/01/23 12:11:34;;;;;;;1.83;1.83;;;4.30;99.90;;;;;;4974405;28;20188;-71
2022/01/23 12:17:07;;;;;;;1.92;1.83;;;4.10;99.90;;;;;;4945138;28;20277;-72
2022/01/23 12:19:41;;;;;;;2.00;1.90;;;4.20;99.90;;;;;;4974957;28;20206;-72
2022/01/23 12:22:24;;;;;;;1.70;1.60;;;4.30;99.90;;;;;;4974723;28;20227;-72
2022/01/23 12:24:54;;;;;;;1.90;1.80;;;4.30;99.90;;;;;;4974813;28;20230;-73
2022/01/23 12:27:26;;;;;;;2.22;2.13;;;4.30;99.90;;;;;;4974999;28;20729;-71
2022/01/23 12:29:57;;;;;;;1.90;1.85;;;4.20;99.90;;;;;;4979082;28;20215;-71
2022/01/23 12:32:29;;;;;;;3.17;2.97;;;4.10;99.90;;;;;;4979342;28;20215;-71
2022/01/23 12:34:59;;;;;;;2.42;2.28;;;4.00;99.90;;;;;;4980775;28;20227;-72
2022/01/23 12:37:26;;;;;;;2.53;2.33;;;3.80;99.90;;;;;;4981803;28;20569;-71
2022/01/23 12:40:26;;;;;;;2.97;2.75;;;3.80;99.90;;;;;;4982420;28;20214;-72
2022/01/23 12:43:07;;;;;;;2.33;2.03;;;3.70;99.90;;;;;;4981203;28;20223;-72
2022/01/23 12:45:48;;;;;;;2.17;2.08;;;3.60;99.90;;;;;;4980415;28;20261;-72
2022/01/23 12:48:39;;;;;;;3.33;2.30;;;3.60;99.90;;;;;;4982165;28;20659;-71
2022/01/23 12:51:09;;;;;;;2.30;2.20;;;3.50;99.90;;;;;;4971165;28;20250;-73
2022/01/23 12:53:37;;;;;;;2.10;2.00;;;3.60;99.90;;;;;;4981604;28;20180;-73
2022/01/23 12:56:09;;;;;;;2.33;2.22;;;3.60;99.90;;;;;;4980867;28;20325;-73
2022/01/23 12:58:37;;;;;;;2.50;2.40;;;3.70;99.90;;;;;;4980439;28;20208;-74
2022/01/23 13:01:09;;;;;;;2.20;2.10;;;3.80;99.90;;;;;;4981348;28;20211;-73
2022/01/23 13:03:38;;;;;;;2.30;2.20;;;3.90;99.90;;;;;;4981975;28;20184;-70
2022/01/23 13:06:07;;;;;;;2.08;1.98;;;3.80;99.90;;;;;;4980734;28;20234;-71
2022/01/23 13:08:45;;;;;;;2.63;2.08;;;3.90;99.90;;;;;;4981300;28;20277;-71
2022/01/23 13:11:51;;;;;;;3.20;3.00;;;3.90;99.90;;;;;;4981244;28;20266;-71
2022/01/23 13:14:26;;;;;;;2.78;2.60;;;3.90;99.90;;;;;;4980054;28;20694;-71
2022/01/23 13:26:23;;;;;;;2.55;2.35;;;3.80;99.90;;;;;;5111879;27;20531;-70
2022/01/23 13:31:07;;;;;;;2.72;2.53;;;3.80;99.90;;;;;;5111065;28;20190;-72
2022/01/23 13:33:34;;;;;;;2.75;2.65;;;3.80;99.90;;;;;;5111381;28;20282;-72
2022/01/23 13:36:08;;;;;;;3.08;2.88;;;3.80;99.90;;;;;;5111256;28;20313;-72
2022/01/23 13:38:36;;;;;;;2.90;2.63;;;3.70;99.90;;;;;;5111088;28;20205;-72
2022/01/23 13:41:19;;;;;;;2.88;2.67;;;3.70;99.90;;;;;;5111124;28;20209;-72
2022/01/23 13:52:35;;;;;;;2.35;2.25;;;3.80;99.90;;;;;;5099944;28;20656;-72
2022/01/23 13:58:10;;;;;;;2.70;2.50;;;3.80;99.90;;;;;;5110416;28;20234;-72
2022/01/23 14:00:38;;;;;;;2.50;2.30;;;3.70;99.90;;;;;;5110691;28;20191;-72
2022/01/23 14:03:05;;;;;;;2.70;2.60;;;3.60;99.90;;;;;;5110496;28;20209;-72
2022/01/23 14:05:34;;;;;;;2.55;2.45;;;3.60;99.90;;;;;;5110218;28;20218;-72
2022/01/23 14:08:05;;;;;;;2.20;2.10;;;3.60;99.90;;;;;;5110218;28;20587;-73
2022/01/23 14:10:34;;;;;;;2.30;2.00;;;3.60;99.90;;;;;;5110456;28;20183;-73
2022/01/23 14:13:10;;;;;;;2.50;2.40;;;3.60;99.90;;;;;;5111081;28;20573;-73
2022/01/23 14:15:44;;;;;;;2.97;2.78;;;3.70;99.90;;;;;;5111001;28;20253;-73
2022/01/23 14:18:14;;;;;;;2.70;2.60;;;3.60;99.90;;;;;;5110078;28;20322;-73
2022/01/23 14:20:42;;;;;;;3.10;2.90;;;3.60;99.90;;;;;;5110892;28;20286;-72
2022/01/23 14:23:18;;;;;;;2.55;2.45;;;3.60;99.90;;;;;;5110431;28;20218;-72
2022/01/23 14:25:47;;;;;;;3.17;2.97;;;3.60;99.90;;;;;;5110653;28;20222;-73
2022/01/23 14:28:17;;;;;;;3.53;3.25;;;3.50;99.90;;;;;;5110358;28;20286;-71
2022/01/23 14:30:46;;;;;;;2.70;2.58;;;3.50;99.90;;;;;;5099462;28;20227;-71
2022/01/23 14:33:17;;;;;;;2.85;2.75;;;3.40;99.90;;;;;;5096663;28;20195;-71
2022/01/23 14:35:44;;;;;;;2.97;2.78;;;3.40;99.90;;;;;;5096628;28;20227;-71
2022/01/23 14:38:17;;;;;;;4.00;3.70;;;3.30;99.90;;;;;;5096218;28;20215;-71
2022/01/23 14:40:56;;;;;;;3.97;3.53;;;3.30;99.90;;;;;;5096489;28;20218;-71
2022/01/23 14:43:30;;;;;;;3.42;3.13;;;3.30;99.90;;;;;;5096118;28;20680;-71
2022/01/23 14:45:58;;;;;;;2.90;2.75;;;3.20;99.90;;;;;;5096309;28;20250;-71
2022/01/23 14:48:26;;;;;;;3.53;3.33;;;3.20;99.90;;;;;;5096340;28;20203;-71
2022/01/23 14:50:55;;;;;;;2.67;2.58;;;3.10;99.90;;;;;;5096105;28;20348;-71
2022/01/23 14:53:25;;;;;;;3.53;2.30;;;3.10;99.90;;;;;;5095726;28;20203;-70
2022/01/23 14:55:54;;;;;;;2.60;2.50;;;3.10;99.90;;;;;;5095592;28;20727;-70
2022/01/23 14:58:22;;;;;;;3.30;3.10;;;3.10;99.90;;;;;;5096062;28;20635;-69
2022/01/23 15:00:51;;;;;;;2.92;2.72;;;3.00;99.90;;;;;;5096043;28;20257;-70
2022/01/23 15:03:18;;;;;;;2.70;2.55;;;2.90;99.90;;;;;;5096008;28;20289;-70
2022/01/23 15:05:45;;;;;;;2.33;2.22;;;2.90;99.90;;;;;;5095914;28;20219;-70
2022/01/23 15:08:14;;;;;;;2.80;2.60;;;2.90;99.90;;;;;;5095946;28;20195;-70
2022/01/23 15:10:45;;;;;;;3.45;2.70;;;2.80;99.90;;;;;;5095477;28;20239;-70
2022/01/23 15:13:13;;;;;;;3.13;2.90;;;2.70;99.90;;;;;;5095925;28;20211;-70
2022/01/23 15:15:41;;;;;;;2.65;2.45;;;2.70;99.90;;;;;;5095546;28;20223;-70
2022/01/23 15:18:09;;;;;;;3.53;3.30;;;2.70;99.90;;;;;;5095610;28;20298;-71
2022/01/23 15:20:36;;;;;;;3.50;3.30;;;2.60;99.90;;;;;;5096012;28;20239;-71
2022/01/23 15:23:04;;;;;;;5.13;3.90;;;2.60;99.90;;;;;;5095904;28;20246;-71
2022/01/23 15:25:31;;;;;;;4.20;3.80;;;2.60;99.90;;;;;;5095560;28;20223;-70
2022/01/23 15:28:00;;;;;;;4.53;4.13;;;2.60;99.90;;;;;;5095753;28;20290;-71
2022/01/23 15:30:27;;;;;;;3.70;3.50;;;2.60;99.90;;;;;;5095441;28;20210;-71
2022/01/23 15:32:55;;;;;;;4.35;3.78;;;2.50;99.90;;;;;;5095083;28;20749;-71
2022/01/23 15:35:25;;;;;;;4.18;3.72;;;2.50;99.90;;;;;;5095931;28;20250;-71
2022/01/23 15:37:52;;;;;;;3.47;3.22;;;2.40;99.90;;;;;;5095258;28;20674;-71
2022/01/23 15:40:21;;;;;;;3.72;3.53;;;2.50;99.90;;;;;;5095683;28;20295;-71
2022/01/23 15:42:50;;;;;;;4.35;3.95;;;2.40;99.90;;;;;;5094291;28;20199;-72
2022/01/23 15:45:19;;;;;;;4.40;4.00;;;2.40;99.90;;;;;;5095672;28;20286;-72
2022/01/23 15:47:47;;;;;;;3.90;3.63;;;2.40;99.90;;;;;;5095429;28;20682;-73
2022/01/23 15:50:15;;;;;;;4.00;3.70;;;2.40;99.90;;;;;;5094784;28;20248;-72
2022/01/23 15:52:43;;;;;;;3.97;3.67;;;2.30;99.90;;;;;;5095110;28;20335;-72
2022/01/23 15:55:12;;;;;;;3.92;3.58;;;2.30;99.90;;;;;;5095833;28;20254;-72
2022/01/23 15:57:40;;;;;;;4.10;3.70;;;2.20;99.90;;;;;;5095606;28;20251;-72
2022/01/23 16:00:09;;;;;;;4.07;3.78;;;2.20;99.90;;;;;;5095562;28;20227;-71
2022/01/23 16:02:37;;;;;;;4.68;4.10;;;2.20;99.90;;;;;;5094886;28;20291;-71
2022/01/23 16:05:05;;;;;;;5.05;4.55;;;2.10;99.90;;;;;;5094696;28;20785;-71
2022/01/23 16:07:32;;;;;;;4.30;3.75;;;2.10;99.90;;;;;;5095065;28;20179;-71
2022/01/23 16:09:59;;;;;;;4.53;4.18;;;2.10;99.90;;;;;;5094715;28;20629;-72
2022/01/23 16:12:26;;;;;;;4.07;3.83;;;2.20;99.90;;;;;;5095019;28;20290;-71
2022/01/23 16:14:53;;;;;;;8.52;5.95;;;2.10;99.90;;;;;;5094770;28;20219;-71
2022/01/23 16:17:20;;;;;;;6.97;5.80;;;2.10;99.90;;;;;;5094485;28;20637;-71
2022/01/23 16:19:50;;;;;;;5.43;4.95;;;2.00;99.90;;;;;;5094603;28;20711;-71
2022/01/23 16:22:17;;;;;;;6.00;5.40;;;1.90;99.90;;;;;;5094770;28;20234;-71
2022/01/23 16:24:44;;;;;;;6.63;5.57;;;1.90;99.90;;;;;;5094717;28;20262;-71
2022/01/23 16:27:11;;;;;;;6.55;5.00;;;1.90;99.90;;;;;;5094710;28;20696;-72
2022/01/23 16:29:38;;;;;;;6.97;6.28;;;1.90;99.90;;;;;;5094802;28;20274;-73
2022/01/23 16:32:05;;;;;;;5.57;5.07;;;1.80;99.90;;;;;;5094522;28;20214;-72
2022/01/23 16:34:32;;;;;;;6.57;5.90;;;1.80;99.90;;;;;;5094581;28;20222;-72
2022/01/23 16:37:00;;;;;;;6.90;6.22;;;1.80;99.90;;;;;;5094460;28;20203;-73
2022/01/23 16:39:27;;;;;;;6.85;5.55;;;1.80;99.90;;;;;;5094151;28;20781;-72
2022/01/23 16:41:54;;;;;;;6.32;5.72;;;1.70;99.90;;;;;;5094432;28;20210;-72
2022/01/23 16:44:24;;;;;;;5.30;4.90;;;1.70;99.90;;;;;;5094260;28;20219;-73
2022/01/23 16:46:51;;;;;;;6.47;5.55;;;1.70;99.90;;;;;;5094659;28;20191;-72
2022/01/23 16:49:18;;;;;;;6.95;6.25;;;1.80;99.90;;;;;;5094334;28;20202;-71
2022/01/23 16:51:45;;;;;;;8.38;5.95;;;1.80;99.90;;;;;;5094189;28;20298;-71
2022/01/23 16:54:15;;;;;;;5.97;5.47;;;1.80;99.90;;;;;;5094568;28;20203;-71
2022/01/23 16:56:43;;;;;;;8.20;5.70;;;1.80;99.90;;;;;;5094089;28;20180;-71
2022/01/23 16:59:12;;;;;;;7.22;5.72;;;1.80;99.90;;;;;;5094166;28;20326;-71
2022/01/23 17:01:39;;;;;;;6.68;5.93;;;1.90;99.90;;;;;;5093943;28;20224;-70
2022/01/23 17:04:06;;;;;;;8.13;5.43;;;1.90;99.90;;;;;;5093850;28;20201;-72
2022/01/23 17:06:38;;;;;;;5.93;4.90;;;1.80;99.90;;;;;;5094193;28;20267;-71
2022/01/23 17:09:05;;;;;;;7.35;5.75;;;1.90;99.90;;;;;;5094733;28;20279;-69
2022/01/23 17:11:33;;;;;;;6.00;5.32;;;1.80;99.90;;;;;;5094563;28;20195;-69
2022/01/23 17:14:01;;;;;;;8.85;6.68;;;1.80;99.90;;;;;;5095744;28;20561;-69
2022/01/23 17:16:28;;;;;;;8.55;6.70;;;1.70;99.90;;;;;;5096732;28;20203;-69
2022/01/23 17:18:56;;;;;;;7.32;6.10;;;1.70;99.90;;;;;;5093588;28;20219;-69
2022/01/23 17:21:23;;;;;;;7.75;6.15;;;1.60;99.90;;;;;;5093816;28;20210;-69
2022/01/23 17:23:50;;;;;;;6.95;6.07;;;1.60;99.90;;;;;;5093344;28;20738;-70
2022/01/23 17:26:18;;;;;;;6.50;5.88;;;1.60;99.90;;;;;;5093301;28;20619;-70
2022/01/23 17:28:47;;;;;;;7.57;6.78;;;1.60;99.90;;;;;;5094496;28;20199;-70
2022/01/23 17:31:14;;;;;;;7.30;5.68;;;1.50;99.90;;;;;;5095579;28;20199;-70
2022/01/23 17:33:41;;;;;;;8.18;6.40;;;1.60;99.90;;;;;;5095196;28;20202;-70
2022/01/23 17:36:07;;;;;;;8.20;6.53;;;1.60;99.90;;;;;;5095550;28;20227;-70
2022/01/23 17:38:36;;;;;;;7.30;6.47;;;1.60;99.90;;;;;;5096332;28;20290;-70
2022/01/23 17:41:04;;;;;;;7.07;6.28;;;1.60;99.90;;;;;;5096188;28;20667;-70
2022/01/23 17:43:31;;;;;;;9.63;6.80;;;1.60;99.90;;;;;;5096761;28;20286;-70
2022/01/23 17:46:00;;;;;;;7.03;6.05;;;1.50;99.90;;;;;;5096095;28;20310;-70
2022/01/23 17:48:35;;;;;;;8.30;6.43;;;1.50;99.90;;;;;;5098533;28;20200;-70
2022/01/23 17:51:04;;;;;;;8.35;6.60;;;1.50;99.90;;;;;;5099539;28;20195;-70
2022/01/23 17:53:31;;;;;;;6.80;5.80;;;1.50;99.90;;;;;;5098406;28;20702;-70
2022/01/23 17:55:58;;;;;;;6.55;5.88;;;1.50;99.90;;;;;;5097371;28;20239;-70
2022/01/23 17:58:26;;;;;;;5.40;4.90;;;1.50;99.90;;;;;;5093086;28;20683;-70
2022/01/23 18:00:54;;;;;;;6.32;5.57;;;1.60;99.90;;;;;;5093235;28;20229;-70
2022/01/23 18:03:23;;;;;;;6.15;5.55;;;1.60;99.90;;;;;;5093483;28;20282;-70
2022/01/23 18:05:52;;;;;;;8.85;7.15;;;1.50;99.90;;;;;;5095945;28;20693;-70
2022/01/23 18:08:20;;;;;;;8.30;6.13;;;1.50;99.90;;;;;;5097201;28;20248;-71
2022/01/23 18:10:48;;;;;;;6.05;5.40;;;1.50;99.90;;;;;;5097336;28;20191;-71
2022/01/23 18:13:21;;;;;;;7.65;5.82;;;1.50;99.90;;;;;;5097095;28;20204;-72
2022/01/23 18:15:48;;;;;;;7.40;6.07;;;1.40;99.90;;;;;;5096920;28;20219;-71
2022/01/23 18:18:15;;;;;;;7.32;5.32;;;1.40;99.90;;;;;;5096848;28;20213;-71
2022/01/23 18:20:44;;;;;;;7.20;6.45;;;1.40;99.90;;;;;;5096712;28;20249;-70
2022/01/23 18:23:11;;;;;;;6.18;5.38;;;1.40;99.90;;;;;;5096858;28;20208;-71
2022/01/23 18:25:44;;;;;;;5.88;5.32;;;1.40;99.90;;;;;;5096834;28;20306;-71
2022/01/23 18:28:12;;;;;;;5.55;5.03;;;1.50;99.90;;;;;;5096869;28;20548;-71
2022/01/23 18:30:40;;;;;;;7.43;5.55;;;1.50;99.90;;;;;;5096411;28;20753;-71
2022/01/23 18:33:07;;;;;;;6.70;5.93;;;1.60;99.90;;;;;;5097274;28;20199;-69
2022/01/23 18:35:34;;;;;;;8.25;6.75;;;1.50;99.90;;;;;;5096591;28;20251;-68
2022/01/23 18:38:02;;;;;;;6.25;5.28;;;1.50;99.90;;;;;;5096740;28;20235;-68
2022/01/23 18:40:29;;;;;;;8.40;6.72;;;1.40;99.90;;;;;;5096733;28;20305;-69
2022/01/23 18:42:58;;;;;;;7.30;6.60;;;1.40;99.90;;;;;;5096768;28;20227;-71
2022/01/23 18:45:25;;;;;;;6.32;5.03;;;1.40;99.90;;;;;;5096869;28;20311;-72
2022/01/23 18:47:52;;;;;;;6.60;5.90;;;1.40;99.90;;;;;;5098703;28;20266;-72
2022/01/23 18:50:19;;;;;;;6.90;6.22;;;1.30;99.90;;;;;;5099567;28;20287;-71
2022/01/23 18:52:54;;;;;;;5.70;5.15;;;1.20;99.90;;;;;;5099709;28;20298;-71
2022/01/23 18:55:25;;;;;;;6.45;5.47;;;1.20;99.90;;;;;;5097471;28;20211;-71
2022/01/23 18:58:03;;;;;;;5.43;4.93;;;1.10;99.90;;;;;;5099933;28;20214;-70
2022/01/23 19:00:32;;;;;;;7.00;5.70;;;1.10;99.90;;;;;;5099558;28;20203;-71
2022/01/23 19:03:06;;;;;;;6.70;6.03;;;1.10;99.90;;;;;;5099212;28;20199;-71
2022/01/23 19:05:35;;;;;;;6.63;5.65;;;1.00;99.90;;;;;;5098791;28;20226;-70
2022/01/23 19:08:05;;;;;;;5.95;5.40;;;1.00;99.90;;;;;;5098902;28;20564;-70
2022/01/23 19:10:36;;;;;;;7.18;6.10;;;1.00;99.90;;;;;;5099275;28;20546;-70
2022/01/23 19:13:04;;;;;;;6.70;6.00;;;1.10;99.90;;;;;;5099661;28;20184;-70
2022/01/23 19:15:31;;;;;;;7.55;5.55;;;1.00;99.90;;;;;;5099430;28;20250;-70